createdAt,value
2022-08-31T00:00:58.895Z,22.37
2022-08-31T00:03:45.516Z,22.61
2022-08-31T00:06:13.145Z,22.27
2022-08-31T00:08:59.485Z,21.83
2022-08-31T00:11:30.969Z,22.26
2022-08-31T00:14:00.549Z,22.45
2022-08-31T00:16:30.464Z,22.57
2022-08-31T00:18:57.931Z,22.67
2022-08-31T00:21:27.096Z,23.28
2022-08-31T00:23:55.559Z,23.56
2022-08-31T00:26:23.680Z,23.24
2022-08-31T00:28:51.826Z,22.02
2022-08-31T00:31:19.934Z,22.84
2022-08-31T00:33:52.489Z,22.47
2022-08-31T00:36:23.356Z,22.28
2022-08-31T00:38:52.182Z,21.59
2022-08-31T00:41:25.400Z,21.93
2022-08-31T00:43:54.427Z,21.77
2022-08-31T00:46:25.407Z,21.56
2022-08-31T00:48:58.265Z,21.60
2022-08-31T00:51:28.555Z,21.83
2022-08-31T00:53:56.223Z,21.44
2022-08-31T00:56:24.093Z,21.75
2022-08-31T00:58:54.887Z,21.32
2022-08-31T01:01:22.952Z,21.18
2022-08-31T01:03:50.512Z,21.19
2022-08-31T01:06:18.979Z,21.55
2022-08-31T01:08:47.044Z,21.57
2022-08-31T01:11:15.011Z,21.87
2022-08-31T01:13:45.017Z,21.79
2022-08-31T01:16:20.438Z,21.34
2022-08-31T01:18:48.448Z,21.66
2022-08-31T01:21:27.299Z,21.83
2022-08-31T01:23:58.141Z,21.60
2022-08-31T01:26:27.710Z,21.47
2022-08-31T01:28:58.550Z,21.33
2022-08-31T01:31:31.306Z,20.91
2022-08-31T01:33:59.259Z,20.46
2022-08-31T01:36:27.392Z,21.05
2022-08-31T01:38:56.829Z,19.95
2022-08-31T01:41:24.523Z,20.20
2022-08-31T01:43:53.175Z,21.02
2022-08-31T01:46:20.967Z,21.05
2022-08-31T01:48:49.381Z,21.18
2022-08-31T01:51:19.337Z,20.72
2022-08-31T01:53:48.918Z,21.13
2022-08-31T01:56:29.198Z,20.57
2022-08-31T01:58:57.593Z,20.83
2022-08-31T02:01:33.237Z,20.50
2022-08-31T02:04:03.881Z,20.16
2022-08-31T02:06:32.517Z,20.15
2022-08-31T02:09:01.216Z,20.26
2022-08-31T02:11:29.222Z,19.63
2022-08-31T02:13:57.106Z,20.37
2022-08-31T02:16:25.035Z,20.40
2022-08-31T02:18:52.934Z,20.67
2022-08-31T02:21:20.437Z,20.52
2022-08-31T02:23:48.266Z,19.72
2022-08-31T02:26:15.996Z,18.96
2022-08-31T02:28:44.712Z,18.89
2022-08-31T02:31:12.828Z,18.83
2022-08-31T02:33:44.173Z,19.28
2022-08-31T02:36:11.999Z,19.60
2022-08-31T02:38:39.595Z,19.12
2022-08-31T02:41:07.835Z,19.01
2022-08-31T02:43:35.640Z,19.85
2022-08-31T02:46:03.118Z,20.76
2022-08-31T02:48:33.197Z,20.81
2022-08-31T02:51:08.244Z,20.45
2022-08-31T02:53:36.668Z,20.19
2022-08-31T02:56:05.370Z,20.22
2022-08-31T02:58:33.152Z,20.52
2022-08-31T03:01:00.886Z,19.63
2022-08-31T03:03:28.635Z,19.61
2022-08-31T03:05:56.143Z,19.79
2022-08-31T03:08:24.389Z,19.30
2022-08-31T03:10:52.152Z,19.37
2022-08-31T03:13:19.980Z,19.54
2022-08-31T03:15:48.339Z,19.55
2022-08-31T03:18:16.790Z,19.74
2022-08-31T03:20:44.229Z,19.34
2022-08-31T03:23:12.406Z,19.15
2022-08-31T03:25:39.986Z,18.90
2022-08-31T03:28:08.562Z,18.77
2022-08-31T03:30:37.065Z,18.65
2022-08-31T03:33:06.341Z,18.27
2022-08-31T03:35:34.743Z,18.40
2022-08-31T03:38:03.393Z,18.15
2022-08-31T03:40:31.011Z,18.27
2022-08-31T03:42:58.949Z,18.62
2022-08-31T03:45:27.904Z,18.64
2022-08-31T03:47:55.498Z,18.48
2022-08-31T03:50:24.277Z,19.14
2022-08-31T03:52:54.228Z,19.19
2022-08-31T03:55:23.138Z,19.14
2022-08-31T03:57:51.523Z,19.27
2022-08-31T04:00:19.338Z,19.63
2022-08-31T04:02:47.618Z,19.43
2022-08-31T04:05:21.415Z,19.13
2022-08-31T04:08:00.821Z,18.39
2022-08-31T04:10:32.481Z,18.66
2022-08-31T04:13:06.324Z,18.65
2022-08-31T04:15:34.354Z,18.32
2022-08-31T04:18:04.876Z,18.37
2022-08-31T04:20:37.397Z,18.64
2022-08-31T04:23:05.208Z,18.57
2022-08-31T04:25:37.975Z,18.85
2022-08-31T04:28:06.124Z,18.67
2022-08-31T04:30:33.673Z,18.98
2022-08-31T04:33:02.227Z,19.08
2022-08-31T04:35:30.073Z,19.22
2022-08-31T04:37:57.659Z,19.47
2022-08-31T04:40:25.496Z,19.15
2022-08-31T04:42:54.354Z,18.62
2022-08-31T04:45:22.339Z,18.72
2022-08-31T04:47:50.302Z,18.90
2022-08-31T04:50:18.178Z,19.00
2022-08-31T04:53:03.951Z,18.93
2022-08-31T04:55:33.017Z,19.50
2022-08-31T04:58:00.646Z,19.76
2022-08-31T05:00:28.423Z,20.44
2022-08-31T05:02:57.970Z,20.41
2022-08-31T05:05:25.712Z,20.40
2022-08-31T05:07:53.244Z,20.16
2022-08-31T05:10:21.755Z,20.44
2022-08-31T05:12:51.827Z,20.62
2022-08-31T05:15:20.555Z,20.23
2022-08-31T05:17:48.748Z,20.18
2022-08-31T05:20:16.455Z,20.34
2022-08-31T05:22:43.886Z,20.46
2022-08-31T05:25:11.753Z,20.56
2022-08-31T05:27:42.152Z,21.04
2022-08-31T05:30:10.431Z,21.27
2022-08-31T05:32:41.310Z,21.59
2022-08-31T05:35:10.356Z,21.70
2022-08-31T05:37:39.324Z,21.44
2022-08-31T05:40:08.497Z,21.65
2022-08-31T05:42:36.532Z,21.65
2022-08-31T05:45:04.551Z,22.27
2022-08-31T05:47:32.204Z,22.49
2022-08-31T05:49:59.762Z,22.38
2022-08-31T05:52:28.523Z,22.53
2022-08-31T05:54:56.336Z,22.36
2022-08-31T05:57:26.673Z,22.43
2022-08-31T05:59:55.496Z,22.31
2022-08-31T06:02:29.455Z,22.51
2022-08-31T06:05:00.449Z,22.62
2022-08-31T06:07:27.960Z,22.56
2022-08-31T06:09:56.042Z,22.94
2022-08-31T06:12:26.023Z,22.45
2022-08-31T06:14:55.578Z,22.42
2022-08-31T06:17:24.530Z,22.77
2022-08-31T06:19:52.465Z,22.64
2022-08-31T06:22:20.268Z,22.80
2022-08-31T06:24:48.230Z,23.25
2022-08-31T06:27:16.605Z,23.51
2022-08-31T06:29:45.144Z,23.39
2022-08-31T06:32:14.006Z,23.71
2022-08-31T06:34:42.822Z,23.52
2022-08-31T06:37:19.004Z,23.25
2022-08-31T06:39:47.773Z,23.49
2022-08-31T06:42:15.322Z,23.53
2022-08-31T06:44:45.656Z,23.51
2022-08-31T06:47:15.479Z,23.56
2022-08-31T06:49:43.157Z,23.64
2022-08-31T06:52:10.755Z,23.92
2022-08-31T06:54:38.782Z,23.35
2022-08-31T06:57:07.440Z,23.79
2022-08-31T06:59:35.298Z,23.67
2022-08-31T07:02:04.711Z,24.13
2022-08-31T07:04:35.331Z,24.21
2022-08-31T07:07:05.156Z,24.11
2022-08-31T07:09:33.651Z,24.24
2022-08-31T07:12:01.446Z,24.30
2022-08-31T07:14:29.445Z,24.27
2022-08-31T07:16:58.681Z,24.83
2022-08-31T07:19:27.113Z,24.82
2022-08-31T07:21:58.447Z,24.72
2022-08-31T07:24:30.482Z,25.00
2022-08-31T07:27:00.805Z,24.72
2022-08-31T07:29:31.718Z,25.27
2022-08-31T07:32:00.083Z,25.15
2022-08-31T07:34:30.203Z,25.11
2022-08-31T07:37:19.468Z,25.29
2022-08-31T07:40:07.768Z,25.60
2022-08-31T07:42:44.522Z,25.04
2022-08-31T07:45:29.420Z,25.30
2022-08-31T07:48:00.563Z,25.56
2022-08-31T07:50:31.618Z,25.89
2022-08-31T07:53:00.480Z,25.78
2022-08-31T07:55:29.389Z,26.07
2022-08-31T07:57:59.001Z,26.57
2022-08-31T08:00:28.844Z,26.65
2022-08-31T08:03:01.794Z,27.18
2022-08-31T08:05:38.606Z,28.97
2022-08-31T08:08:13.441Z,30.58
2022-08-31T08:10:43.677Z,31.90
2022-08-31T08:13:20.504Z,33.13
2022-08-31T08:15:50.833Z,33.23
2022-08-31T08:18:21.086Z,33.98
2022-08-31T08:20:49.548Z,35.23
2022-08-31T08:23:25.852Z,35.26
2022-08-31T08:26:01.443Z,35.26
2022-08-31T08:28:45.976Z,35.86
2022-08-31T08:31:17.640Z,35.87
2022-08-31T08:33:46.001Z,34.81
2022-08-31T08:36:18.957Z,34.66
2022-08-31T08:38:50.559Z,35.09
2022-08-31T08:41:22.281Z,35.07
2022-08-31T08:43:57.324Z,34.58
2022-08-31T08:46:38.841Z,35.09
2022-08-31T08:49:15.096Z,34.20
2022-08-31T08:51:43.937Z,33.88
2022-08-31T08:54:15.898Z,33.60
2022-08-31T08:56:47.810Z,33.85
2022-08-31T08:59:19.534Z,33.52
2022-08-31T09:01:50.028Z,32.41
2022-08-31T09:04:45.433Z,32.28
2022-08-31T09:07:37.484Z,32.46
2022-08-31T09:10:17.437Z,31.83
2022-08-31T09:13:30.237Z,31.00
2022-08-31T09:16:11.356Z,31.66
2022-08-31T09:18:54.333Z,31.91
2022-08-31T09:21:26.012Z,31.48
2022-08-31T09:24:02.072Z,31.50
2022-08-31T09:26:46.904Z,31.66
2022-08-31T09:29:24.682Z,31.80
2022-08-31T09:32:07.311Z,32.40
2022-08-31T09:34:42.190Z,32.24
2022-08-31T09:37:17.213Z,31.95
2022-08-31T09:39:47.980Z,32.30
2022-08-31T09:42:32.043Z,32.44
2022-08-31T09:45:09.661Z,32.56
2022-08-31T09:47:51.347Z,32.32
2022-08-31T09:50:32.481Z,32.81
2022-08-31T09:53:42.803Z,32.67
2022-08-31T09:56:22.546Z,32.90
2022-08-31T09:58:53.103Z,33.17
2022-08-31T10:01:44.980Z,32.39
2022-08-31T10:04:19.539Z,33.18
2022-08-31T10:07:09.523Z,32.41
2022-08-31T10:09:45.023Z,33.17
2022-08-31T10:12:39.814Z,33.77
2022-08-31T10:15:20.974Z,33.43
2022-08-31T10:18:03.310Z,32.95
2022-08-31T10:20:36.023Z,33.03
2022-08-31T10:23:19.143Z,33.07
2022-08-31T10:25:54.673Z,33.83
2022-08-31T10:28:32.521Z,34.23
2022-08-31T10:31:07.548Z,34.42
2022-08-31T10:34:01.299Z,34.07
2022-08-31T10:36:36.482Z,33.76
2022-08-31T10:39:11.784Z,33.91
2022-08-31T10:41:44.306Z,33.67
2022-08-31T10:44:24.230Z,33.95
2022-08-31T10:46:54.568Z,34.30
2022-08-31T10:49:22.370Z,34.39
2022-08-31T10:51:56.612Z,33.20
2022-08-31T10:54:39.222Z,33.72
2022-08-31T10:57:32.255Z,34.26
2022-08-31T11:00:42.448Z,34.26
2022-08-31T11:03:42.264Z,33.08
2022-08-31T11:06:19.143Z,34.16
2022-08-31T11:09:15.946Z,34.60
2022-08-31T11:11:51.896Z,34.63
2022-08-31T11:14:49.878Z,34.33
2022-08-31T11:17:42.537Z,34.60
2022-08-31T11:20:34.943Z,35.04
2022-08-31T11:23:43.051Z,33.14
2022-08-31T11:26:39.198Z,34.06
2022-08-31T11:29:13.053Z,33.57
2022-08-31T11:31:41.553Z,33.99
2022-08-31T11:34:17.517Z,34.24
2022-08-31T11:36:55.396Z,33.88
2022-08-31T11:39:45.530Z,34.16
2022-08-31T11:42:18.793Z,34.97
2022-08-31T11:45:00.794Z,33.99
2022-08-31T11:47:28.088Z,34.08
2022-08-31T11:50:00.171Z,34.27
2022-08-31T11:52:32.750Z,33.91
2022-08-31T11:55:10.029Z,33.86
2022-08-31T11:58:06.367Z,33.88
2022-08-31T12:01:06.911Z,33.51
2022-08-31T12:03:45.964Z,33.82
2022-08-31T12:06:25.758Z,34.17
2022-08-31T12:09:02.529Z,34.71
2022-08-31T12:11:48.424Z,35.01
2022-08-31T12:14:50.292Z,34.63
2022-08-31T12:17:34.571Z,35.16
2022-08-31T12:20:20.068Z,35.29
2022-08-31T12:23:30.061Z,34.49
2022-08-31T12:26:01.526Z,33.55
2022-08-31T12:28:58.353Z,33.75
2022-08-31T12:31:26.465Z,34.41
2022-08-31T12:34:05.763Z,33.93
2022-08-31T12:36:36.982Z,33.79
2022-08-31T12:39:21.081Z,33.45
2022-08-31T12:41:57.234Z,34.08
2022-08-31T12:44:29.407Z,33.79
2022-08-31T12:46:59.672Z,34.59
2022-08-31T12:49:55.300Z,34.35
2022-08-31T12:52:31.829Z,34.05
2022-08-31T12:55:14.550Z,34.11
2022-08-31T12:57:48.995Z,34.00
2022-08-31T13:00:27.283Z,33.91
2022-08-31T13:02:59.603Z,33.58
2022-08-31T13:05:27.450Z,33.63
2022-08-31T13:07:56.173Z,33.71
2022-08-31T13:10:38.323Z,33.89
2022-08-31T13:13:08.413Z,33.81
2022-08-31T13:15:39.939Z,33.60
2022-08-31T13:18:23.403Z,33.09
2022-08-31T13:21:02.444Z,33.30
2022-08-31T13:23:34.893Z,33.04
2022-08-31T13:26:05.926Z,33.04
2022-08-31T13:28:35.085Z,33.79
2022-08-31T13:31:05.579Z,33.60
2022-08-31T13:33:40.446Z,34.34
2022-08-31T13:36:32.681Z,34.01
2022-08-31T13:39:04.155Z,34.07
2022-08-31T13:41:38.398Z,34.11
2022-08-31T13:44:09.008Z,34.43
2022-08-31T13:46:44.321Z,34.44
2022-08-31T13:49:31.011Z,33.61
2022-08-31T13:51:59.117Z,33.58
2022-08-31T13:54:31.605Z,33.79
2022-08-31T13:57:25.932Z,33.89
2022-08-31T13:59:53.791Z,33.60
2022-08-31T14:02:30.844Z,32.98
2022-08-31T14:05:07.918Z,32.28
2022-08-31T14:07:36.146Z,33.06
2022-08-31T14:10:14.234Z,33.53
2022-08-31T14:12:59.299Z,33.64
2022-08-31T14:15:36.354Z,33.94
2022-08-31T14:18:24.448Z,33.42
2022-08-31T14:21:26.391Z,33.89
2022-08-31T14:24:01.350Z,33.75
2022-08-31T14:26:34.993Z,33.36
2022-08-31T14:29:10.212Z,33.29
2022-08-31T14:31:43.270Z,32.97
2022-08-31T14:34:25.542Z,33.16
2022-08-31T14:37:07.660Z,33.25
2022-08-31T14:39:41.935Z,33.31
2022-08-31T14:42:18.775Z,33.23
2022-08-31T14:44:53.781Z,32.99
2022-08-31T14:47:24.343Z,33.16
2022-08-31T14:49:52.248Z,32.47
2022-08-31T14:52:19.699Z,32.51
2022-08-31T14:54:47.832Z,32.89
2022-08-31T14:57:18.475Z,32.90
2022-08-31T14:59:47.238Z,32.32
2022-08-31T15:02:21.289Z,32.04
2022-08-31T15:04:48.989Z,32.06
2022-08-31T15:07:17.785Z,32.54
2022-08-31T15:09:46.792Z,32.38
2022-08-31T15:12:15.668Z,32.46
2022-08-31T15:14:45.037Z,32.71
2022-08-31T15:17:19.814Z,32.84
2022-08-31T15:19:50.399Z,32.64
2022-08-31T15:22:18.965Z,32.58
2022-08-31T15:24:46.807Z,32.44
2022-08-31T15:27:16.515Z,32.31
2022-08-31T15:29:47.434Z,32.23
2022-08-31T15:32:17.325Z,32.19
2022-08-31T15:34:50.140Z,31.81
2022-08-31T15:37:17.765Z,31.67
2022-08-31T15:39:49.029Z,31.12
2022-08-31T15:42:21.533Z,30.53
2022-08-31T15:44:57.265Z,30.67
2022-08-31T15:47:56.120Z,30.67
2022-08-31T15:50:31.888Z,30.22
2022-08-31T15:53:08.689Z,30.34
2022-08-31T15:55:40.988Z,29.80
2022-08-31T15:58:09.831Z,29.81
2022-08-31T16:00:38.244Z,29.91
2022-08-31T16:03:06.279Z,29.85
2022-08-31T16:05:39.584Z,29.74
2022-08-31T16:08:11.251Z,29.43
2022-08-31T16:10:45.102Z,29.32
2022-08-31T16:13:15.833Z,29.57
2022-08-31T16:15:51.354Z,29.26
2022-08-31T16:18:21.744Z,29.34
2022-08-31T16:20:50.558Z,29.34
2022-08-31T16:23:18.352Z,29.41
2022-08-31T16:25:49.108Z,29.18
2022-08-31T16:28:19.415Z,29.06
2022-08-31T16:30:47.688Z,29.13
2022-08-31T16:33:15.259Z,28.99
2022-08-31T16:35:44.708Z,29.13
2022-08-31T16:38:13.030Z,28.92
2022-08-31T16:40:41.725Z,28.72
2022-08-31T16:43:09.890Z,28.74
2022-08-31T16:45:39.420Z,29.59
2022-08-31T16:48:29.394Z,28.49
2022-08-31T16:51:01.903Z,28.56
2022-08-31T16:53:30.175Z,28.15
2022-08-31T16:56:00.176Z,28.33
2022-08-31T16:58:50.502Z,27.91
2022-08-31T17:01:20.892Z,27.90
2022-08-31T17:03:54.128Z,28.01
2022-08-31T17:06:23.943Z,28.10
2022-08-31T17:09:00.366Z,27.87
2022-08-31T17:11:32.304Z,28.16
2022-08-31T17:14:01.464Z,27.83
2022-08-31T17:16:33.173Z,27.97
2022-08-31T17:19:02.080Z,28.08
2022-08-31T17:21:32.144Z,28.27
2022-08-31T17:24:02.028Z,27.89
2022-08-31T17:26:32.727Z,27.93
2022-08-31T17:29:05.685Z,28.16
2022-08-31T17:31:36.723Z,27.71
2022-08-31T17:34:04.645Z,27.62
2022-08-31T17:36:37.302Z,27.59
2022-08-31T17:39:06.652Z,27.46
2022-08-31T17:41:36.165Z,27.84
2022-08-31T17:44:04.368Z,27.39
2022-08-31T17:46:33.126Z,27.83
2022-08-31T17:49:01.109Z,27.76
2022-08-31T17:51:30.904Z,27.90
2022-08-31T17:54:01.971Z,27.76
2022-08-31T17:56:48.294Z,27.64
2022-08-31T17:59:19.010Z,27.33
2022-08-31T18:01:49.021Z,27.31
2022-08-31T18:04:17.625Z,27.57
2022-08-31T18:06:45.647Z,27.53
2022-08-31T18:09:15.108Z,27.57
2022-08-31T18:11:46.839Z,27.68
2022-08-31T18:14:19.088Z,27.48
2022-08-31T18:16:47.786Z,27.16
2022-08-31T18:19:16.874Z,27.41
2022-08-31T18:21:56.274Z,27.53
2022-08-31T18:24:23.752Z,27.64
2022-08-31T18:26:52.059Z,27.76
2022-08-31T18:29:24.327Z,27.58
2022-08-31T18:31:54.179Z,27.52
2022-08-31T18:34:23.827Z,27.61
2022-08-31T18:36:53.765Z,27.61
2022-08-31T18:39:47.752Z,27.57
2022-08-31T18:42:32.231Z,27.69
2022-08-31T18:45:18.957Z,27.75
2022-08-31T18:48:20.924Z,27.77
2022-08-31T18:50:44.932Z,27.71
2022-08-31T18:53:27.426Z,27.52
2022-08-31T18:56:10.172Z,27.30
2022-08-31T18:58:38.795Z,27.38
2022-08-31T19:01:11.594Z,27.43
2022-08-31T19:03:40.184Z,27.54
2022-08-31T19:06:08.876Z,27.41
2022-08-31T19:08:36.575Z,26.72
2022-08-31T19:11:08.150Z,26.99
2022-08-31T19:13:35.816Z,27.52
2022-08-31T19:16:15.225Z,27.41
2022-08-31T19:18:44.552Z,27.23
2022-08-31T19:21:18.781Z,27.00
2022-08-31T19:23:47.544Z,26.94
2022-08-31T19:26:30.100Z,26.77
2022-08-31T19:28:58.718Z,27.09
2022-08-31T19:31:27.742Z,26.66
2022-08-31T19:33:57.178Z,26.17
2022-08-31T19:36:27.722Z,25.98
2022-08-31T19:38:56.586Z,26.03
2022-08-31T19:41:25.561Z,26.25
2022-08-31T19:44:05.619Z,26.14
2022-08-31T19:46:41.031Z,26.15
2022-08-31T19:49:11.339Z,26.01
2022-08-31T19:51:45.745Z,26.26
2022-08-31T19:54:13.972Z,25.91
2022-08-31T19:56:42.959Z,25.30
2022-08-31T19:59:12.195Z,25.24
2022-08-31T20:01:39.866Z,25.38
2022-08-31T20:04:16.323Z,25.36
2022-08-31T20:06:45.680Z,25.41
2022-08-31T20:09:13.812Z,25.02
2022-08-31T20:11:41.398Z,24.92
2022-08-31T20:14:08.864Z,25.24
2022-08-31T20:16:41.738Z,25.08
2022-08-31T20:19:14.074Z,25.25
2022-08-31T20:21:42.146Z,25.28
2022-08-31T20:24:12.946Z,24.93
2022-08-31T20:26:51.771Z,24.89
2022-08-31T20:29:20.719Z,24.80
2022-08-31T20:31:50.404Z,24.53
2022-08-31T20:34:19.659Z,24.40
2022-08-31T20:36:50.139Z,24.65
2022-08-31T20:39:19.141Z,24.29
2022-08-31T20:41:48.249Z,24.22
2022-08-31T20:44:21.380Z,24.25
2022-08-31T20:47:10.837Z,24.55
2022-08-31T20:49:43.631Z,24.40
2022-08-31T20:52:13.325Z,24.39
2022-08-31T20:54:43.099Z,24.44
2022-08-31T20:57:13.407Z,24.34
2022-08-31T20:59:41.556Z,24.48
2022-08-31T21:02:09.629Z,24.36
2022-08-31T21:04:39.826Z,24.67
2022-08-31T21:07:11.959Z,24.85
2022-08-31T21:09:41.214Z,24.71
2022-08-31T21:12:10.233Z,24.82
2022-08-31T21:14:40.992Z,24.84
2022-08-31T21:17:08.448Z,24.98
2022-08-31T21:19:39.170Z,25.08
2022-08-31T21:22:09.261Z,24.82
2022-08-31T21:24:38.317Z,24.84
2022-08-31T21:27:09.670Z,24.78
2022-08-31T21:29:38.051Z,24.79
2022-08-31T21:32:07.766Z,24.71
2022-08-31T21:34:35.526Z,24.46
2022-08-31T21:37:03.232Z,24.69
2022-08-31T21:39:32.423Z,24.58
2022-08-31T21:41:59.882Z,24.40
2022-08-31T21:44:28.248Z,24.71
2022-08-31T21:46:55.850Z,24.43
2022-08-31T21:49:23.792Z,24.12
2022-08-31T21:51:54.423Z,24.13
2022-08-31T21:54:27.249Z,23.92
2022-08-31T21:56:59.276Z,24.41
2022-08-31T21:59:29.606Z,24.41
2022-08-31T22:02:00.363Z,24.49
2022-08-31T22:04:31.679Z,24.87
2022-08-31T22:06:59.721Z,24.58
2022-08-31T22:09:28.996Z,23.87
2022-08-31T22:11:58.112Z,24.12
2022-08-31T22:14:32.122Z,24.17
2022-08-31T22:17:05.529Z,24.18
2022-08-31T22:19:36.691Z,24.23
2022-08-31T22:22:07.151Z,23.95
2022-08-31T22:24:36.272Z,24.92
2022-08-31T22:27:06.906Z,24.40
2022-08-31T22:29:35.736Z,24.35
2022-08-31T22:32:10.066Z,24.74
2022-08-31T22:34:38.859Z,24.17
2022-08-31T22:37:25.380Z,24.27
2022-08-31T22:39:55.320Z,23.97
2022-08-31T22:42:23.511Z,24.27
2022-08-31T22:44:51.296Z,24.31
2022-08-31T22:47:19.380Z,24.42
2022-08-31T22:49:47.402Z,24.37
2022-08-31T22:52:17.418Z,24.39
2022-08-31T22:54:45.802Z,24.49
2022-08-31T22:57:13.236Z,23.61
2022-08-31T22:59:42.405Z,23.13
2022-08-31T23:02:10.225Z,22.66
2022-08-31T23:04:43.787Z,22.11
2022-08-31T23:07:16.324Z,21.79
2022-08-31T23:09:44.371Z,21.47
2022-08-31T23:12:12.270Z,20.92
2022-08-31T23:14:42.558Z,21.38
2022-08-31T23:17:10.611Z,21.41
2022-08-31T23:19:40.961Z,21.64
2022-08-31T23:22:11.868Z,21.78
2022-08-31T23:24:51.303Z,21.80
2022-08-31T23:27:20.915Z,21.76
2022-08-31T23:29:52.255Z,21.90
2022-08-31T23:32:21.588Z,21.45
2022-08-31T23:34:52.595Z,21.87
2022-08-31T23:37:23.162Z,21.77
2022-08-31T23:39:54.423Z,21.69
2022-08-31T23:42:23.441Z,21.87
2022-08-31T23:44:51.159Z,22.35
2022-08-31T23:47:25.873Z,22.18
2022-08-31T23:49:53.426Z,21.84
2022-08-31T23:52:23.837Z,21.55
2022-08-31T23:54:54.162Z,22.22
2022-08-31T23:57:32.221Z,22.05
